createdAt,value
2019-03-25T00:00:39.705Z,35.18
2019-03-25T00:01:39.688Z,35.16
2019-03-25T00:02:39.682Z,34.88
2019-03-25T00:03:39.687Z,34.98
2019-03-25T00:04:39.666Z,34.96
2019-03-25T00:05:39.652Z,34.58
2019-03-25T00:06:39.664Z,34.67
2019-03-25T00:07:39.626Z,34.67
2019-03-25T00:08:39.639Z,34.78
2019-03-25T00:09:39.615Z,34.78
2019-03-25T00:10:39.599Z,34.58
2019-03-25T00:11:39.582Z,34.86
2019-03-25T00:12:39.576Z,34.67
2019-03-25T00:13:39.580Z,35.28
2019-03-25T00:14:39.641Z,34.78
2019-03-25T00:15:39.541Z,34.98
2019-03-25T00:16:39.528Z,34.66
2019-03-25T00:17:39.526Z,34.78
2019-03-25T00:18:39.524Z,35.06
2019-03-25T00:19:39.501Z,35.08
2019-03-25T00:20:39.490Z,34.88
2019-03-25T00:21:39.475Z,34.67
2019-03-25T00:22:39.462Z,34.88
2019-03-25T00:23:39.463Z,35.08
2019-03-25T00:24:39.442Z,35.26
2019-03-25T00:25:39.523Z,34.98
2019-03-25T00:26:39.419Z,35.08
2019-03-25T00:27:39.417Z,35.08
2019-03-25T00:28:39.414Z,35.18
2019-03-25T00:29:39.393Z,34.78
2019-03-25T00:30:39.377Z,34.98
2019-03-25T00:31:39.396Z,34.88
2019-03-25T00:32:39.352Z,35.08
2019-03-25T00:33:39.386Z,35.18
2019-03-25T00:34:39.354Z,35.18
2019-03-25T00:35:39.332Z,35.18
2019-03-25T00:36:39.304Z,35.18
2019-03-25T00:37:39.296Z,35.18
2019-03-25T00:38:39.299Z,35.08
2019-03-25T00:39:39.275Z,34.88
2019-03-25T00:40:39.261Z,35.28
2019-03-25T00:41:39.250Z,34.17
2019-03-25T00:42:39.261Z,35.08
2019-03-25T00:43:39.260Z,35.18
2019-03-25T00:44:39.223Z,35.08
2019-03-25T00:45:39.206Z,34.98
2019-03-25T00:46:39.292Z,34.17
2019-03-25T00:47:39.187Z,35.18
2019-03-25T00:48:39.203Z,35.18
2019-03-25T00:49:39.173Z,35.18
2019-03-25T00:50:39.161Z,35.08
2019-03-25T00:51:39.142Z,35.18
2019-03-25T00:52:39.138Z,35.28
2019-03-25T00:53:39.133Z,35.18
2019-03-25T00:54:49.618Z,35.18
2019-03-25T00:55:39.100Z,34.58
2019-03-25T00:56:39.086Z,34.48
2019-03-25T00:57:39.098Z,35.08
2019-03-25T00:58:39.082Z,35.08
2019-03-25T00:59:39.055Z,35.28
2019-03-25T01:00:39.673Z,35.28
2019-03-25T01:01:39.030Z,35.18
2019-03-25T01:02:39.019Z,34.48
2019-03-25T01:03:39.015Z,34.48
2019-03-25T01:04:38.996Z,35.28
2019-03-25T01:05:38.988Z,35.08
2019-03-25T01:06:38.977Z,35.08
2019-03-25T01:07:38.965Z,35.08
2019-03-25T01:08:38.959Z,34.38
2019-03-25T01:09:38.967Z,34.17
2019-03-25T01:10:38.935Z,34.48
2019-03-25T01:11:48.738Z,34.99
2019-03-25T01:12:38.908Z,35.28
2019-03-25T01:13:38.898Z,35.28
2019-03-25T01:14:38.902Z,35.28
2019-03-25T01:15:38.892Z,35.18
2019-03-25T01:16:38.869Z,34.17
2019-03-25T01:17:38.857Z,35.18
2019-03-25T01:18:38.875Z,34.98
2019-03-25T01:19:38.848Z,34.49
2019-03-25T01:20:38.819Z,34.19
2019-03-25T01:21:38.814Z,34.98
2019-03-25T01:22:38.799Z,35.18
2019-03-25T01:23:38.785Z,35.18
2019-03-25T01:24:38.787Z,35.08
2019-03-25T01:25:38.764Z,34.89
2019-03-25T01:26:38.749Z,34.88
2019-03-25T01:27:38.757Z,34.48
2019-03-25T01:28:38.747Z,34.29
2019-03-25T01:29:38.748Z,34.49
2019-03-25T01:30:38.705Z,35.28
2019-03-25T01:31:38.699Z,34.28
2019-03-25T01:32:38.690Z,35.30
2019-03-25T01:33:38.689Z,34.28
2019-03-25T01:34:38.693Z,34.48
2019-03-25T01:35:38.655Z,34.49
2019-03-25T01:36:38.640Z,34.48
2019-03-25T01:37:38.631Z,34.58
2019-03-25T01:38:38.627Z,35.08
2019-03-25T01:39:38.620Z,34.29
2019-03-25T01:40:38.609Z,34.49
2019-03-25T01:41:38.585Z,34.48
2019-03-25T01:42:38.575Z,34.48
2019-03-25T01:43:38.567Z,34.48
2019-03-25T01:44:38.591Z,34.59
2019-03-25T01:45:38.559Z,34.48
2019-03-25T01:46:38.540Z,34.29
2019-03-25T01:47:38.521Z,34.49
2019-03-25T01:48:38.511Z,34.89
2019-03-25T01:49:38.511Z,34.48
2019-03-25T01:50:38.494Z,34.29
2019-03-25T01:51:38.515Z,34.59
2019-03-25T01:53:29.622Z,34.88
2019-03-25T01:53:38.451Z,34.59
2019-03-25T01:54:38.462Z,34.99
2019-03-25T01:55:38.441Z,34.09
2019-03-25T01:56:38.420Z,34.99
2019-03-25T01:57:38.409Z,34.09
2019-03-25T01:58:38.401Z,34.89
2019-03-25T01:59:38.409Z,33.99
2019-03-25T02:00:38.392Z,34.89
2019-03-25T02:01:38.372Z,34.49
2019-03-25T02:02:38.367Z,34.89
2019-03-25T02:03:38.348Z,34.89
2019-03-25T02:04:38.359Z,34.99
2019-03-25T02:05:38.326Z,35.08
2019-03-25T02:06:38.314Z,34.98
2019-03-25T02:07:38.310Z,34.09
2019-03-25T02:08:38.351Z,34.88
2019-03-25T02:09:38.297Z,34.89
2019-03-25T02:10:38.294Z,34.69
2019-03-25T02:11:38.262Z,34.99
2019-03-25T02:12:38.241Z,34.69
2019-03-25T02:13:38.233Z,34.67
2019-03-25T02:14:38.243Z,34.69
2019-03-25T02:15:38.233Z,34.19
2019-03-25T02:16:38.205Z,34.08
2019-03-25T02:17:38.192Z,34.78
2019-03-25T02:18:38.177Z,34.80
2019-03-25T02:19:38.180Z,34.09
2019-03-25T02:20:38.163Z,34.89
2019-03-25T02:21:38.148Z,34.99
2019-03-25T02:22:38.168Z,33.98
2019-03-25T02:23:38.133Z,34.08
2019-03-25T02:24:38.111Z,34.29
2019-03-25T02:25:38.106Z,34.80
2019-03-25T02:26:38.086Z,34.09
2019-03-25T02:27:38.083Z,34.19
2019-03-25T02:28:38.094Z,34.19
2019-03-25T02:29:38.057Z,34.89
2019-03-25T02:30:38.067Z,34.80
2019-03-25T02:31:38.030Z,34.19
2019-03-25T02:32:38.022Z,34.49
2019-03-25T02:33:38.030Z,34.29
2019-03-25T02:34:38.000Z,34.29
2019-03-25T02:35:38.026Z,34.49
2019-03-25T02:36:37.982Z,34.49
2019-03-25T02:37:37.976Z,34.69
2019-03-25T02:38:37.958Z,34.59
2019-03-25T02:39:37.967Z,34.80
2019-03-25T02:40:37.948Z,34.59
2019-03-25T02:41:37.929Z,34.59
2019-03-25T02:42:37.915Z,34.49
2019-03-25T02:43:37.913Z,34.59
2019-03-25T02:44:37.888Z,34.99
2019-03-25T02:45:37.894Z,34.59
2019-03-25T02:46:37.870Z,34.59
2019-03-25T02:47:37.851Z,34.49
2019-03-25T02:48:37.883Z,34.69
2019-03-25T02:49:37.840Z,34.49
2019-03-25T02:50:37.835Z,34.49
2019-03-25T02:51:37.829Z,34.80
2019-03-25T02:52:37.806Z,34.49
2019-03-25T02:53:37.791Z,35.19
2019-03-25T02:54:37.777Z,34.49
2019-03-25T02:55:41.872Z,34.49
2019-03-25T02:56:37.757Z,34.80
2019-03-25T02:57:37.743Z,34.59
2019-03-25T02:58:37.745Z,34.29
2019-03-25T02:59:37.721Z,34.49
2019-03-25T03:00:37.769Z,34.19
2019-03-25T03:01:37.710Z,34.09
2019-03-25T03:02:37.691Z,34.69
2019-03-25T03:03:37.675Z,34.49
2019-03-25T03:04:37.710Z,34.19
2019-03-25T03:05:37.726Z,34.49
2019-03-25T03:06:37.713Z,34.59
2019-03-25T03:07:37.664Z,34.49
2019-03-25T03:08:37.621Z,34.39
2019-03-25T03:09:37.622Z,34.59
2019-03-25T03:10:37.621Z,34.49
2019-03-25T03:11:37.587Z,34.19
2019-03-25T03:12:37.578Z,34.59
2019-03-25T03:13:37.565Z,34.29
2019-03-25T03:14:37.572Z,34.61
2019-03-25T03:15:37.565Z,34.59
2019-03-25T03:16:37.543Z,34.49
2019-03-25T03:17:37.519Z,35.31
2019-03-25T03:18:37.507Z,34.59
2019-03-25T03:19:37.499Z,34.69
2019-03-25T03:20:37.513Z,34.51
2019-03-25T03:21:37.483Z,34.51
2019-03-25T03:22:37.470Z,34.49
2019-03-25T03:23:37.464Z,34.59
2019-03-25T03:24:37.434Z,34.19
2019-03-25T03:25:37.461Z,34.29
2019-03-25T03:26:37.414Z,34.21
2019-03-25T03:27:37.405Z,34.49
2019-03-25T03:28:37.397Z,34.61
2019-03-25T03:29:37.381Z,34.59
2019-03-25T03:30:37.394Z,34.71
2019-03-25T03:31:37.376Z,34.69
2019-03-25T03:32:37.388Z,34.61
2019-03-25T03:33:37.340Z,34.51
2019-03-25T03:34:37.344Z,34.51
2019-03-25T03:35:37.344Z,34.61
2019-03-25T03:36:37.311Z,34.51
2019-03-25T03:37:37.329Z,34.31
2019-03-25T03:38:37.356Z,34.81
2019-03-25T03:39:37.272Z,34.51
2019-03-25T03:40:37.271Z,34.51
2019-03-25T03:41:37.247Z,34.71
2019-03-25T03:42:37.239Z,34.71
2019-03-25T03:43:37.225Z,34.51
2019-03-25T03:44:37.212Z,34.51
2019-03-25T03:45:37.219Z,34.59
2019-03-25T03:46:37.196Z,34.51
2019-03-25T03:47:37.226Z,34.59
2019-03-25T03:48:37.197Z,34.91
2019-03-25T03:49:37.177Z,35.19
2019-03-25T03:50:41.421Z,34.29
2019-03-25T03:51:37.146Z,34.61
2019-03-25T03:52:37.124Z,34.61
2019-03-25T03:53:37.114Z,34.59
2019-03-25T03:54:37.100Z,34.41
2019-03-25T03:55:37.123Z,34.69
2019-03-25T03:56:37.081Z,34.49
2019-03-25T03:57:37.068Z,34.61
2019-03-25T03:58:37.057Z,34.81
2019-03-25T03:59:37.049Z,34.31
2019-03-25T04:00:37.046Z,34.71
2019-03-25T04:01:37.041Z,34.49
2019-03-25T04:02:37.010Z,34.51
2019-03-25T04:03:36.995Z,34.51
2019-03-25T04:04:36.992Z,34.61
2019-03-25T04:05:36.979Z,34.59
2019-03-25T04:06:36.974Z,34.71
2019-03-25T04:07:36.960Z,34.59
2019-03-25T04:08:36.963Z,34.31
2019-03-25T04:09:36.941Z,34.51
2019-03-25T04:10:36.926Z,34.51
2019-03-25T04:11:36.919Z,34.71
2019-03-25T04:12:36.908Z,34.61
2019-03-25T04:13:36.898Z,34.61
2019-03-25T04:14:36.875Z,34.61
2019-03-25T04:15:36.879Z,34.41
2019-03-25T04:16:36.860Z,34.51
2019-03-25T04:17:36.845Z,34.41
2019-03-25T04:18:36.855Z,34.81
2019-03-25T04:19:36.829Z,34.61
2019-03-25T04:20:36.807Z,34.51
2019-03-25T04:21:36.813Z,34.81
2019-03-25T04:22:36.784Z,34.51
2019-03-25T04:23:36.780Z,34.51
2019-03-25T04:24:36.778Z,34.51
2019-03-25T04:25:36.764Z,34.21
2019-03-25T04:26:36.759Z,35.01
2019-03-25T04:27:36.738Z,35.21
2019-03-25T04:28:36.717Z,34.29
2019-03-25T04:29:36.719Z,35.21
2019-03-25T04:30:36.698Z,34.81
2019-03-25T04:31:36.705Z,34.91
2019-03-25T04:32:36.682Z,34.91
2019-03-25T04:33:36.665Z,35.19
2019-03-25T04:34:36.662Z,34.21
2019-03-25T04:35:36.640Z,34.61
2019-03-25T04:36:36.651Z,34.21
2019-03-25T04:37:36.642Z,34.91
2019-03-25T04:38:36.623Z,34.91
2019-03-25T04:39:36.605Z,34.81
2019-03-25T04:40:36.601Z,34.49
2019-03-25T04:41:36.589Z,34.41
2019-03-25T04:42:36.562Z,34.41
2019-03-25T04:43:36.548Z,34.41
2019-03-25T04:44:36.541Z,34.80
2019-03-25T04:45:36.542Z,34.41
2019-03-25T04:46:36.551Z,34.81
2019-03-25T04:47:36.524Z,34.81
2019-03-25T04:48:36.492Z,34.31
2019-03-25T04:49:36.482Z,35.21
2019-03-25T04:50:36.478Z,34.21
2019-03-25T04:51:36.511Z,35.21
2019-03-25T04:52:36.451Z,35.21
2019-03-25T04:53:36.436Z,34.21
2019-03-25T04:54:36.427Z,34.21
2019-03-25T04:55:36.415Z,34.51
2019-03-25T04:56:40.007Z,34.41
2019-03-25T04:57:36.395Z,34.81
2019-03-25T04:58:36.378Z,34.81
2019-03-25T04:59:36.382Z,34.31
2019-03-25T05:00:36.363Z,34.41
2019-03-25T05:01:36.364Z,34.61
2019-03-25T05:02:36.352Z,35.21
2019-03-25T05:03:36.347Z,34.81
2019-03-25T05:04:36.318Z,34.51
2019-03-25T05:05:36.465Z,34.51
2019-03-25T05:06:36.310Z,34.71
2019-03-25T05:07:36.284Z,34.51
2019-03-25T05:08:36.277Z,34.61
2019-03-25T05:09:36.279Z,34.61
2019-03-25T05:10:36.246Z,34.61
2019-03-25T05:11:36.258Z,34.61
2019-03-25T05:12:36.254Z,34.61
2019-03-25T05:13:36.224Z,34.71
2019-03-25T05:14:36.204Z,34.71
2019-03-25T05:15:36.202Z,34.61
2019-03-25T05:16:36.215Z,34.31
2019-03-25T05:17:36.184Z,34.51
2019-03-25T05:18:36.235Z,34.51
2019-03-25T05:19:36.150Z,34.21
2019-03-25T05:20:36.135Z,34.21
2019-03-25T05:21:36.148Z,34.91
2019-03-25T05:22:36.115Z,34.91
2019-03-25T05:23:36.114Z,34.71
2019-03-25T05:24:36.103Z,34.21
2019-03-25T05:25:36.087Z,34.91
2019-03-25T05:26:36.070Z,34.91
2019-03-25T05:27:36.071Z,34.21
2019-03-25T05:28:36.047Z,34.31
2019-03-25T05:29:36.036Z,34.81
2019-03-25T05:30:36.023Z,35.01
2019-03-25T05:31:36.015Z,34.81
2019-03-25T05:32:36.022Z,34.81
2019-03-25T05:33:35.995Z,35.01
2019-03-25T05:34:35.997Z,34.81
2019-03-25T05:35:35.992Z,34.91
2019-03-25T05:36:35.988Z,34.91
2019-03-25T05:37:35.984Z,35.01
2019-03-25T05:38:35.946Z,34.51
2019-03-25T05:39:35.930Z,34.51
2019-03-25T05:40:35.926Z,34.61
2019-03-25T05:41:35.924Z,34.61
2019-03-25T05:42:35.924Z,34.61
2019-03-25T05:43:35.889Z,34.51
2019-03-25T05:44:35.893Z,34.31
2019-03-25T05:45:35.870Z,34.31
2019-03-25T05:46:35.855Z,35.01
2019-03-25T05:47:35.854Z,34.51
2019-03-25T05:48:35.842Z,34.31
2019-03-25T05:49:35.822Z,35.31
2019-03-25T05:50:35.812Z,35.11
2019-03-25T05:51:35.796Z,35.01
2019-03-25T05:52:35.804Z,34.61
2019-03-25T05:53:35.788Z,34.61
2019-03-25T05:54:35.814Z,35.21
2019-03-25T05:55:35.754Z,35.21
2019-03-25T05:56:35.763Z,35.21
2019-03-25T05:57:35.744Z,35.01
2019-03-25T05:58:35.726Z,35.01
2019-03-25T05:59:35.718Z,35.11
2019-03-25T06:00:35.710Z,35.21
2019-03-25T06:01:35.702Z,34.71
2019-03-25T06:02:35.697Z,35.11
2019-03-25T06:03:35.666Z,35.11
2019-03-25T06:04:35.685Z,34.91
2019-03-25T06:05:35.664Z,34.71
2019-03-25T06:06:35.637Z,34.71
2019-03-25T06:07:35.645Z,35.01
2019-03-25T06:08:35.629Z,34.81
2019-03-25T06:09:35.605Z,35.21
2019-03-25T06:10:35.597Z,34.81
2019-03-25T06:11:35.601Z,35.51
2019-03-25T06:12:35.583Z,35.01
2019-03-25T06:13:35.565Z,34.81
2019-03-25T06:14:35.552Z,35.41
2019-03-25T06:15:35.552Z,35.51
2019-03-25T06:16:35.526Z,35.51
2019-03-25T06:17:35.535Z,35.61
2019-03-25T06:18:35.519Z,35.11
2019-03-25T06:19:35.493Z,35.11
2019-03-25T06:20:35.480Z,35.31
2019-03-25T06:21:35.481Z,34.91
2019-03-25T06:22:35.482Z,34.91
2019-03-25T06:23:35.482Z,36.21
2019-03-25T06:24:35.438Z,35.61
2019-03-25T06:25:35.436Z,35.82
2019-03-25T06:26:35.412Z,35.82
2019-03-25T06:27:35.434Z,35.61
2019-03-25T06:28:35.398Z,35.51
2019-03-25T06:29:35.390Z,35.82
2019-03-25T06:30:35.375Z,35.71
2019-03-25T06:31:35.361Z,35.41
2019-03-25T06:32:35.366Z,35.82
2019-03-25T06:33:35.363Z,36.02
2019-03-25T06:34:35.341Z,36.11
2019-03-25T06:35:35.325Z,35.91
2019-03-25T06:36:35.328Z,35.61
2019-03-25T06:37:35.314Z,35.91
2019-03-25T06:38:35.289Z,36.02
2019-03-25T06:39:35.289Z,36.11
2019-03-25T06:40:35.276Z,36.11
2019-03-25T06:41:35.286Z,36.52
2019-03-25T06:42:35.259Z,36.61
2019-03-25T06:43:35.243Z,36.32
2019-03-25T06:44:35.417Z,36.11
2019-03-25T06:45:35.221Z,36.33
2019-03-25T06:46:35.206Z,37.44
2019-03-25T06:47:35.213Z,36.93
2019-03-25T06:48:35.180Z,37.84
2019-03-25T06:49:35.179Z,37.44
2019-03-25T06:50:35.155Z,37.85
2019-03-25T06:51:35.162Z,38.74
2019-03-25T06:52:35.156Z,38.26
2019-03-25T06:53:35.136Z,38.56
2019-03-25T06:54:35.109Z,38.66
2019-03-25T06:55:35.128Z,39.06
2019-03-25T06:56:35.089Z,39.16
2019-03-25T06:57:35.110Z,39.26
2019-03-25T06:58:35.084Z,39.97
2019-03-25T06:59:35.055Z,39.47
2019-03-25T07:00:35.045Z,39.86
2019-03-25T07:01:35.027Z,39.47
2019-03-25T07:02:35.030Z,39.26
2019-03-25T07:03:35.028Z,39.47
2019-03-25T07:04:35.011Z,39.56
2019-03-25T07:05:34.994Z,39.38
2019-03-25T07:06:34.976Z,38.56
2019-03-25T07:07:34.966Z,39.48
2019-03-25T07:08:35.003Z,39.38
2019-03-25T07:09:34.964Z,39.18
2019-03-25T07:10:34.949Z,39.38
2019-03-25T07:11:34.925Z,39.08
2019-03-25T07:12:34.917Z,39.28
2019-03-25T07:13:34.915Z,39.10
2019-03-25T07:14:34.888Z,39.38
2019-03-25T07:15:34.917Z,38.88
2019-03-25T07:16:34.878Z,38.78
2019-03-25T07:17:34.853Z,39.10
2019-03-25T07:18:34.900Z,38.58
2019-03-25T07:19:34.838Z,39.48
2019-03-25T07:20:34.834Z,38.79
2019-03-25T07:21:34.835Z,38.49
2019-03-25T07:22:34.873Z,38.49
2019-03-25T07:23:34.819Z,37.99
2019-03-25T07:24:34.804Z,39.10
2019-03-25T07:25:34.778Z,38.29
2019-03-25T07:26:34.764Z,39.30
2019-03-25T07:27:37.175Z,39.00
2019-03-25T07:28:34.754Z,38.90
2019-03-25T07:29:34.740Z,38.79
2019-03-25T07:30:34.728Z,38.79
2019-03-25T07:31:34.707Z,38.70
2019-03-25T07:32:34.704Z,38.20
2019-03-25T07:33:34.697Z,38.60
2019-03-25T07:34:34.685Z,39.20
2019-03-25T07:35:34.690Z,38.90
2019-03-25T07:36:34.651Z,38.70
2019-03-25T07:37:34.661Z,37.89
2019-03-25T07:38:34.682Z,37.69
2019-03-25T07:39:34.650Z,38.09
2019-03-25T07:40:34.614Z,38.29
2019-03-25T07:41:34.603Z,38.09
2019-03-25T07:42:34.587Z,37.39
2019-03-25T07:43:34.606Z,37.89
2019-03-25T07:44:34.568Z,37.69
2019-03-25T07:45:35.623Z,38.11
2019-03-25T07:46:34.534Z,37.99
2019-03-25T07:47:34.530Z,37.69
2019-03-25T07:48:34.556Z,37.99
2019-03-25T07:49:34.515Z,37.89
2019-03-25T07:50:34.494Z,37.89
2019-03-25T07:51:34.484Z,37.79
2019-03-25T07:52:34.468Z,37.99
2019-03-25T07:53:34.487Z,37.79
2019-03-25T07:54:34.515Z,37.69
2019-03-25T07:55:34.443Z,37.79
2019-03-25T07:56:34.465Z,37.69
2019-03-25T07:57:34.443Z,37.89
2019-03-25T07:58:34.421Z,37.59
2019-03-25T07:59:34.427Z,37.69
2019-03-25T08:00:34.385Z,37.39
2019-03-25T08:01:34.430Z,36.99
2019-03-25T08:02:34.371Z,36.89
2019-03-25T08:03:34.379Z,37.29
2019-03-25T08:04:34.367Z,37.39
2019-03-25T08:05:34.335Z,35.88
2019-03-25T08:06:34.395Z,36.18
2019-03-25T08:07:34.334Z,35.88
2019-03-25T08:08:34.320Z,35.68
2019-03-25T08:09:34.290Z,36.38
2019-03-25T08:10:34.331Z,36.16
2019-03-25T08:11:34.288Z,36.16
2019-03-25T08:12:34.269Z,37.19
2019-03-25T08:13:34.266Z,36.38
2019-03-25T08:14:34.243Z,36.08
2019-03-25T08:15:34.223Z,36.29
2019-03-25T08:16:34.204Z,36.69
2019-03-25T08:17:34.195Z,35.88
2019-03-25T08:18:34.203Z,35.78
2019-03-25T08:19:34.209Z,36.08
2019-03-25T08:20:34.179Z,35.38
2019-03-25T08:21:34.159Z,35.88
2019-03-25T08:22:34.139Z,35.98
2019-03-25T08:23:34.148Z,36.29
2019-03-25T08:24:34.138Z,35.88
2019-03-25T08:25:34.110Z,35.68
2019-03-25T08:26:34.089Z,35.98
2019-03-25T08:27:34.096Z,35.88
2019-03-25T08:28:34.077Z,36.08
2019-03-25T08:29:34.148Z,36.38
2019-03-25T08:30:34.052Z,35.78
2019-03-25T08:31:34.045Z,35.78
2019-03-25T08:32:34.031Z,35.58
2019-03-25T08:33:34.027Z,35.88
2019-03-25T08:34:34.050Z,36.18
2019-03-25T08:35:34.011Z,36.18
2019-03-25T08:36:33.983Z,36.18
2019-03-25T08:37:33.971Z,36.38
2019-03-25T08:38:33.972Z,36.08
2019-03-25T08:39:33.959Z,37.41
2019-03-25T08:40:34.002Z,37.59
2019-03-25T08:41:33.941Z,36.99
2019-03-25T08:42:33.909Z,38.09
2019-03-25T08:43:33.912Z,37.59
2019-03-25T08:44:33.905Z,37.59
2019-03-25T08:45:33.882Z,37.89
2019-03-25T08:46:33.884Z,37.59
2019-03-25T08:47:33.880Z,38.90
2019-03-25T08:48:33.856Z,38.90
2019-03-25T08:49:33.852Z,36.99
2019-03-25T08:50:33.849Z,36.60
2019-03-25T08:51:33.835Z,36.58
2019-03-25T08:52:33.812Z,38.49
2019-03-25T08:53:33.805Z,37.59
2019-03-25T08:54:38.008Z,37.39
2019-03-25T08:55:33.786Z,37.29
2019-03-25T08:56:33.896Z,35.98
2019-03-25T08:57:33.780Z,36.49
2019-03-25T08:58:33.785Z,37.69
2019-03-25T08:59:33.742Z,36.58
2019-03-25T09:00:33.724Z,36.18
2019-03-25T09:01:33.712Z,37.08
2019-03-25T09:02:33.686Z,36.29
2019-03-25T09:03:33.710Z,37.29
2019-03-25T09:04:33.688Z,37.39
2019-03-25T09:05:33.842Z,36.08
2019-03-25T09:06:33.709Z,38.20
2019-03-25T09:07:33.715Z,38.20
2019-03-25T09:08:33.636Z,37.29
2019-03-25T09:09:33.654Z,36.08
2019-03-25T09:10:33.634Z,36.08
2019-03-25T09:11:33.611Z,36.08
2019-03-25T09:12:33.587Z,35.88
2019-03-25T09:13:33.580Z,36.29
2019-03-25T09:14:33.589Z,36.18
2019-03-25T09:15:33.561Z,36.29
2019-03-25T09:16:33.550Z,35.98
2019-03-25T09:17:33.545Z,35.26
2019-03-25T09:18:33.594Z,35.88
2019-03-25T09:19:36.650Z,36.08
2019-03-25T09:20:33.545Z,35.48
2019-03-25T09:21:35.160Z,36.16
2019-03-25T09:22:33.554Z,35.77
2019-03-25T09:23:33.498Z,35.08
2019-03-25T09:24:33.511Z,35.97
2019-03-25T09:25:33.496Z,35.26
2019-03-25T09:26:33.513Z,35.86
2019-03-25T09:27:33.537Z,36.18
2019-03-25T09:28:33.466Z,35.66
2019-03-25T09:29:33.463Z,34.88
2019-03-25T09:30:33.435Z,34.98
2019-03-25T09:31:36.898Z,34.98
2019-03-25T09:32:33.438Z,34.88
2019-03-25T09:33:33.363Z,35.58
2019-03-25T09:34:33.395Z,35.08
2019-03-25T09:35:33.347Z,35.48
2019-03-25T09:36:33.325Z,35.18
2019-03-25T09:37:33.394Z,34.88
2019-03-25T09:38:33.300Z,35.68
2019-03-25T09:39:33.410Z,35.38
2019-03-25T09:40:33.289Z,35.28
2019-03-25T09:41:33.270Z,34.47
2019-03-25T09:42:33.306Z,35.28
2019-03-25T09:43:33.313Z,35.38
2019-03-25T09:44:33.253Z,35.18
2019-03-25T09:45:33.283Z,35.48
2019-03-25T09:46:33.238Z,35.58
2019-03-25T09:47:33.225Z,35.38
2019-03-25T09:48:33.210Z,35.58
2019-03-25T09:49:33.197Z,35.78
2019-03-25T09:50:33.190Z,35.58
2019-03-25T09:51:33.171Z,35.78
2019-03-25T09:52:38.369Z,35.46
2019-03-25T09:53:33.133Z,35.88
2019-03-25T09:54:33.137Z,36.27
2019-03-25T09:55:33.111Z,35.97
2019-03-25T09:56:33.126Z,35.66
2019-03-25T09:57:33.132Z,35.86
2019-03-25T09:58:36.449Z,35.77
2019-03-25T09:59:33.080Z,35.66
2019-03-25T10:00:35.221Z,35.66
2019-03-25T10:01:33.150Z,35.86
2019-03-25T10:02:33.052Z,35.86
2019-03-25T10:03:33.127Z,35.95
2019-03-25T10:04:33.019Z,35.77
2019-03-25T10:05:33.034Z,35.66
2019-03-25T10:06:32.992Z,35.26
2019-03-25T10:07:33.003Z,35.85
2019-03-25T10:08:32.980Z,35.35
2019-03-25T10:09:32.966Z,35.66
2019-03-25T10:10:32.987Z,34.94
2019-03-25T10:11:32.994Z,35.26
2019-03-25T10:12:32.951Z,35.26
2019-03-25T10:13:33.042Z,35.16
2019-03-25T10:14:32.911Z,35.66
2019-03-25T10:15:32.922Z,35.46
2019-03-25T10:16:32.885Z,35.05
2019-03-25T10:17:32.866Z,35.14
2019-03-25T10:18:32.861Z,35.55
2019-03-25T10:19:32.871Z,35.06
2019-03-25T10:20:32.855Z,35.75
2019-03-25T10:21:32.827Z,35.55
2019-03-25T10:22:32.845Z,35.64
2019-03-25T10:23:32.802Z,35.44
2019-03-25T10:24:32.820Z,35.35
2019-03-25T10:25:32.800Z,35.35
2019-03-25T10:26:32.806Z,34.96
2019-03-25T10:27:32.771Z,35.75
2019-03-25T10:28:32.804Z,35.44
2019-03-25T10:29:32.737Z,35.44
2019-03-25T10:30:32.757Z,35.55
2019-03-25T10:31:32.773Z,35.44
2019-03-25T10:32:32.704Z,36.45
2019-03-25T10:33:32.721Z,35.95
2019-03-25T10:34:32.683Z,35.64
2019-03-25T10:35:32.734Z,35.95
2019-03-25T10:36:32.735Z,35.64
2019-03-25T10:37:32.655Z,35.55
2019-03-25T10:38:32.646Z,36.35
2019-03-25T10:39:32.660Z,36.45
2019-03-25T10:40:32.633Z,37.26
2019-03-25T10:41:32.618Z,36.05
2019-03-25T10:42:32.607Z,36.85
2019-03-25T10:43:35.975Z,36.15
2019-03-25T10:44:32.582Z,36.65
2019-03-25T10:45:32.584Z,35.95
2019-03-25T10:46:32.561Z,36.15
2019-03-25T10:47:32.561Z,35.95
2019-03-25T10:48:32.580Z,36.25
2019-03-25T10:49:32.540Z,36.05
2019-03-25T10:50:32.573Z,36.05
2019-03-25T10:51:32.513Z,35.95
2019-03-25T10:52:32.516Z,36.65
2019-03-25T10:53:32.470Z,36.05
2019-03-25T10:54:32.579Z,36.55
2019-03-25T10:55:32.497Z,36.65
2019-03-25T10:56:32.475Z,36.05
2019-03-25T10:57:32.436Z,36.35
2019-03-25T10:58:32.439Z,35.85
2019-03-25T10:59:32.409Z,35.95
2019-03-25T11:00:32.417Z,35.85
2019-03-25T11:01:32.667Z,36.65
2019-03-25T11:02:32.471Z,36.05
2019-03-25T11:03:32.436Z,36.15
2019-03-25T11:04:32.350Z,36.05
2019-03-25T11:05:32.361Z,35.95
2019-03-25T11:06:32.347Z,36.15
2019-03-25T11:07:32.387Z,36.35
2019-03-25T11:08:32.311Z,36.05
2019-03-25T11:09:32.365Z,35.83
2019-03-25T11:10:32.337Z,36.23
2019-03-25T11:11:32.285Z,36.05
2019-03-25T11:12:32.271Z,35.83
2019-03-25T11:13:32.254Z,36.33
2019-03-25T11:14:32.937Z,35.73
2019-03-25T11:15:32.250Z,36.43
2019-03-25T11:16:32.223Z,36.43
2019-03-25T11:17:32.221Z,36.43
2019-03-25T11:18:32.203Z,36.43
2019-03-25T11:19:32.197Z,37.24
2019-03-25T11:20:32.227Z,37.52
2019-03-25T11:21:32.173Z,37.24
2019-03-25T11:22:32.164Z,37.12
2019-03-25T11:23:32.164Z,36.92
2019-03-25T11:24:32.133Z,37.02
2019-03-25T11:25:32.133Z,36.41
2019-03-25T11:26:32.105Z,36.61
2019-03-25T11:27:32.100Z,37.32
2019-03-25T11:28:32.091Z,37.32
2019-03-25T11:29:32.076Z,37.00
2019-03-25T11:30:32.063Z,37.02
2019-03-25T11:31:32.084Z,37.50
2019-03-25T11:32:32.054Z,36.90
2019-03-25T11:33:32.072Z,36.80
2019-03-25T11:34:32.056Z,36.80
2019-03-25T11:35:32.015Z,37.10
2019-03-25T11:36:32.021Z,37.30
2019-03-25T11:37:31.996Z,37.40
2019-03-25T11:38:31.984Z,37.30
2019-03-25T11:39:31.964Z,37.60
2019-03-25T11:40:31.972Z,37.50
2019-03-25T11:41:31.972Z,37.40
2019-03-25T11:42:31.963Z,37.70
2019-03-25T11:43:31.927Z,37.50
2019-03-25T11:44:31.974Z,38.31
2019-03-25T11:45:31.970Z,37.70
2019-03-25T11:46:31.904Z,37.60
2019-03-25T11:47:31.889Z,37.70
2019-03-25T11:48:31.861Z,37.40
2019-03-25T11:49:31.855Z,37.98
2019-03-25T11:50:31.855Z,37.80
2019-03-25T11:51:31.850Z,37.68
2019-03-25T11:52:31.826Z,37.80
2019-03-25T11:53:31.824Z,37.68
2019-03-25T11:54:31.800Z,37.80
2019-03-25T11:55:31.786Z,37.38
2019-03-25T11:56:31.841Z,37.80
2019-03-25T11:57:31.764Z,37.80
2019-03-25T11:58:31.754Z,37.38
2019-03-25T11:59:31.759Z,37.59
2019-03-25T12:00:31.749Z,37.59
2019-03-25T12:01:31.735Z,37.90
2019-03-25T12:02:31.749Z,37.59
2019-03-25T12:03:31.722Z,37.38
2019-03-25T12:04:31.709Z,37.38
2019-03-25T12:05:31.690Z,37.59
2019-03-25T12:06:31.680Z,37.68
2019-03-25T12:07:31.665Z,37.98
2019-03-25T12:08:31.662Z,37.88
2019-03-25T12:09:31.635Z,37.79
2019-03-25T12:10:31.643Z,37.79
2019-03-25T12:11:31.633Z,37.79
2019-03-25T12:12:31.631Z,37.79
2019-03-25T12:13:31.621Z,37.48
2019-03-25T12:14:31.592Z,37.77
2019-03-25T12:15:31.586Z,37.59
2019-03-25T12:16:31.593Z,37.38
2019-03-25T12:17:31.568Z,37.88
2019-03-25T12:18:31.572Z,37.68
2019-03-25T12:19:31.556Z,37.48
2019-03-25T12:20:31.524Z,37.79
2019-03-25T12:21:31.547Z,37.59
2019-03-25T12:22:31.490Z,38.49
2019-03-25T12:23:31.505Z,38.49
2019-03-25T12:24:31.485Z,38.29
2019-03-25T12:25:31.457Z,38.68
2019-03-25T12:26:31.464Z,37.98
2019-03-25T12:27:31.537Z,38.89
2019-03-25T12:28:32.430Z,38.79
2019-03-25T12:29:31.425Z,39.49
2019-03-25T12:30:31.465Z,39.49
2019-03-25T12:31:31.422Z,39.39
2019-03-25T12:32:31.404Z,39.18
2019-03-25T12:33:31.379Z,39.39
2019-03-25T12:34:31.435Z,40.19
2019-03-25T12:35:31.355Z,39.69
2019-03-25T12:36:31.378Z,39.29
2019-03-25T12:37:31.347Z,39.69
2019-03-25T12:38:31.326Z,39.40
2019-03-25T12:39:31.930Z,39.21
2019-03-25T12:40:31.298Z,39.40
2019-03-25T12:41:31.297Z,39.61
2019-03-25T12:42:31.283Z,39.31
2019-03-25T12:43:31.271Z,38.92
2019-03-25T12:44:31.250Z,39.23
2019-03-25T12:45:31.242Z,38.42
2019-03-25T12:46:31.282Z,37.82
2019-03-25T12:47:31.227Z,37.62
2019-03-25T12:48:31.255Z,37.32
2019-03-25T12:49:31.193Z,37.54
2019-03-25T12:50:31.198Z,37.94
2019-03-25T12:51:31.187Z,37.44
2019-03-25T12:52:31.188Z,37.54